Observations for BRISTOL LULSGATE, United Kingdom (EGGD)

EGGD 242020Z 25019KT 5000 -RADZ BR BKN002 09/09 Q1009   
EGGD 241950Z 25014KT 3500 -RADZ BR BKN002 11/11 Q1008   
EGGD 241920Z 24012KT 2000 -RADZ BR SCT002 BKN004 11/11 Q1008 RERA   
EGGD 241850Z AUTO 23011KT 4000 RA BKN008/// OVC014/// //////TCU 12/11 Q1008 
EGGD 241820Z 22011KT 9999 -RA FEW005 BKN010 12/11 Q1008 
EGGD 241750Z 23011KT 8000 RADZ SCT004 BKN010 12/12 Q1008
EGGD 241720Z 24010KT 6000 -RADZ FEW004 BKN008 12/11 Q1009   
EGGD 241650Z 22013KT 9000 VCSH FEW004 BKN010 13/11 Q1009
EGGD 241620Z 22013KT 9999 VCSH FEW001 SCT002 BKN004 12/12 Q1009 RERA REDZ   
EGGD 241550Z 24011KT 0800 R27/P1500 RADZ FG SCT001 BKN002 12/12 Q1010 REDZ  
EGGD 241520Z 22012KT 4000 1800SW -RADZ SCT003 BKN004 13/12 Q1010
EGGD 241450Z 21013KT 8000 -DZ BKN006 13/12 Q1010
EGGD 241420Z 21013KT 9000 FEW005 BKN008 13/12 Q1011 
EGGD 241350Z 21009KT 9000 -RA FEW005 BKN008 12/12 Q1011 
EGGD 241320Z AUTO 20013KT 9999 OVC006 12/11 Q1011   
EGGD 241250Z 19012KT 9999 VCSH SCT007 BKN013 13/11 Q1012
EGGD 241220Z 19011KT 9999 VCSH SCT006 BKN017 12/10 Q1012
EGGD 241150Z 18013KT 9999 SCT010 BKN018 12/09 Q1013 
EGGD 241120Z AUTO 19013KT 9999 BKN019 BKN025 OVC032 12/07 Q1013 
EGGD 241050Z AUTO 17010KT 9999 OVC034 13/08 Q1014   
EGGD 241020Z AUTO 16011KT 9999 FEW015 OVC042 12/08 Q1014
EGGD 240950Z 18006KT 150V210 9999 SCT014 BKN045 12/08 Q1015 
EGGD 240920Z AUTO 22007KT 170V250 9999 BKN007 11/09 Q1015   
EGGD 240850Z AUTO 23007KT 9999 BKN006 11/09 Q1015   
EGGD 240820Z AUTO 25008KT 9999 BKN005 BKN009 10/09 Q1016
EGGD 240750Z AUTO 24010KT 9999 BKN003 10/09 Q1016   
EGGD 240720Z AUTO 24009KT 9999 BKN004 10/09 Q1016   
EGGD 240650Z AUTO 25011KT 9999 OVC003 10/09 Q1016   
EGGD 240620Z AUTO 26015KT 9999 OVC003 09/09 Q1016   
EGGD 240550Z AUTO 26013KT 9999 BKN003 OVC007 09/09 Q1016
EGGD 240520Z AUTO 26013KT 9999 OVC002 09/09 Q1015   
EGGD 240450Z AUTO 26013KT 9999 OVC002 09/08 Q1015   
EGGD 240420Z AUTO 26011KT 9999 BKN003 OVC009 09/08 Q1015
EGGD 240350Z AUTO 26013KT 9999 OVC003 09/09 Q1016   
EGGD 240320Z AUTO 26013KT 9999 OVC003 09/09 Q1016   
EGGD 240250Z AUTO 26016KT 9999 OVC005 09/08 Q1015   
EGGD 240220Z AUTO 26017G28KT 9999 OVC006 10/08 Q1016
EGGD 240150Z AUTO 26017KT 9999 OVC007 10/08 Q1015   
EGGD 240120Z AUTO 26018KT 9999 OVC009 10/08 Q1015   
EGGD 240050Z AUTO 25015KT 9999 OVC007 10/09 Q1015   
EGGD 240020Z AUTO 25014KT 9999 BKN006 OVC010 10/09 Q1016
EGGD 232350Z AUTO 24013KT 9999 BKN007 OVC018 10/09 Q1015
EGGD 232320Z AUTO 24013KT 9999 OVC007 10/09 Q1016   
EGGD 232250Z 23011KT 9999 BKN008 10/09 Q1016
EGGD 232220Z 23010KT 9999 FEW004 SCT006 BKN009 10/09 Q1016  
EGGD 232150Z AUTO 23012KT 6000 -RA BKN003 OVC009 10/09 Q1016 RERA REDZ  
EGGD 232120Z AUTO 24015KT 5000 -RADZ BKN005 OVC011 10/09 Q1016  
EGGD 232050Z AUTO 23012KT 9999 OVC010 10/08 Q1016   
EGGD 232020Z AUTO 23011KT 9999 BKN012 10/08 Q1016   
EGGD 231950Z AUTO 24012KT 9999 FEW016 BKN020 BKN040 10/07 Q1016